sensor_id;sensor_type;location;lat;lon;timestamp;P1;durP1;ratioP1;P2;durP2;ratioP2
27383;SDS011;14851;51.166;4.760;2023-11-21T00:00:42;20.65;;;16.20;;
27383;SDS011;14851;51.166;4.760;2023-11-21T00:03:08;26.10;;;18.77;;
27383;SDS011;14851;51.166;4.760;2023-11-21T00:05:34;35.00;;;21.80;;
27383;SDS011;14851;51.166;4.760;2023-11-21T00:08:03;32.08;;;20.13;;
27383;SDS011;14851;51.166;4.760;2023-11-21T00:10:30;29.95;;;19.45;;
27383;SDS011;14851;51.166;4.760;2023-11-21T00:12:56;30.75;;;19.38;;
27383;SDS011;14851;51.166;4.760;2023-11-21T00:15:22;32.22;;;19.38;;
27383;SDS011;14851;51.166;4.760;2023-11-21T00:17:50;26.98;;;16.50;;
27383;SDS011;14851;51.166;4.760;2023-11-21T00:20:16;21.67;;;16.85;;
27383;SDS011;14851;51.166;4.760;2023-11-21T00:22:42;26.48;;;15.27;;
27383;SDS011;14851;51.166;4.760;2023-11-21T00:25:08;29.25;;;16.17;;
27383;SDS011;14851;51.166;4.760;2023-11-21T00:27:36;33.05;;;17.85;;
27383;SDS011;14851;51.166;4.760;2023-11-21T00:30:04;29.20;;;16.75;;
27383;SDS011;14851;51.166;4.760;2023-11-21T00:32:36;38.17;;;18.73;;
27383;SDS011;14851;51.166;4.760;2023-11-21T00:35:03;45.08;;;18.38;;
27383;SDS011;14851;51.166;4.760;2023-11-21T00:37:31;45.03;;;20.83;;
27383;SDS011;14851;51.166;4.760;2023-11-21T00:39:57;81.18;;;21.92;;
27383;SDS011;14851;51.166;4.760;2023-11-21T00:42:23;98.25;;;21.88;;
27383;SDS011;14851;51.166;4.760;2023-11-21T00:44:50;70.00;;;22.17;;
27383;SDS011;14851;51.166;4.760;2023-11-21T00:47:16;114.38;;;22.52;;
27383;SDS011;14851;51.166;4.760;2023-11-21T00:49:43;101.97;;;22.85;;
27383;SDS011;14851;51.166;4.760;2023-11-21T00:52:09;79.30;;;22.83;;
27383;SDS011;14851;51.166;4.760;2023-11-21T00:54:35;99.10;;;23.20;;
27383;SDS011;14851;51.166;4.760;2023-11-21T00:57:01;89.47;;;22.63;;
27383;SDS011;14851;51.166;4.760;2023-11-21T00:59:27;145.25;;;25.58;;
27383;SDS011;14851;51.166;4.760;2023-11-21T01:01:54;99.88;;;24.75;;
27383;SDS011;14851;51.166;4.760;2023-11-21T01:04:24;83.97;;;24.83;;
27383;SDS011;14851;51.166;4.760;2023-11-21T01:06:50;111.43;;;27.05;;
27383;SDS011;14851;51.166;4.760;2023-11-21T01:09:17;120.15;;;28.30;;
27383;SDS011;14851;51.166;4.760;2023-11-21T01:11:44;128.55;;;27.25;;
27383;SDS011;14851;51.166;4.760;2023-11-21T01:14:11;114.75;;;27.35;;
27383;SDS011;14851;51.166;4.760;2023-11-21T01:16:38;110.32;;;28.25;;
27383;SDS011;14851;51.166;4.760;2023-11-21T01:19:04;156.35;;;27.27;;
27383;SDS011;14851;51.166;4.760;2023-11-21T01:21:33;195.15;;;29.33;;
27383;SDS011;14851;51.166;4.760;2023-11-21T01:23:59;133.57;;;28.60;;
27383;SDS011;14851;51.166;4.760;2023-11-21T01:26:25;127.20;;;28.25;;
27383;SDS011;14851;51.166;4.760;2023-11-21T01:28:51;151.10;;;28.25;;
27383;SDS011;14851;51.166;4.760;2023-11-21T01:31:19;113.57;;;28.98;;
27383;SDS011;14851;51.166;4.760;2023-11-21T01:33:48;126.65;;;28.83;;
27383;SDS011;14851;51.166;4.760;2023-11-21T01:36:15;118.22;;;28.55;;
27383;SDS011;14851;51.166;4.760;2023-11-21T01:38:41;121.75;;;29.55;;
27383;SDS011;14851;51.166;4.760;2023-11-21T01:41:09;116.57;;;29.40;;
27383;SDS011;14851;51.166;4.760;2023-11-21T01:43:39;104.60;;;28.85;;
27383;SDS011;14851;51.166;4.760;2023-11-21T01:46:06;122.15;;;29.65;;
27383;SDS011;14851;51.166;4.760;2023-11-21T01:48:33;102.13;;;29.38;;
27383;SDS011;14851;51.166;4.760;2023-11-21T01:51:01;166.32;;;32.00;;
27383;SDS011;14851;51.166;4.760;2023-11-21T01:53:28;84.18;;;28.92;;
27383;SDS011;14851;51.166;4.760;2023-11-21T01:55:55;98.60;;;29.63;;
27383;SDS011;14851;51.166;4.760;2023-11-21T01:58:22;83.82;;;28.73;;
27383;SDS011;14851;51.166;4.760;2023-11-21T02:00:48;77.10;;;29.27;;
27383;SDS011;14851;51.166;4.760;2023-11-21T02:03:16;128.02;;;29.02;;
27383;SDS011;14851;51.166;4.760;2023-11-21T02:05:45;110.97;;;29.55;;
27383;SDS011;14851;51.166;4.760;2023-11-21T02:08:12;96.38;;;29.75;;
27383;SDS011;14851;51.166;4.760;2023-11-21T02:10:38;74.78;;;29.95;;
27383;SDS011;14851;51.166;4.760;2023-11-21T02:13:06;62.80;;;28.70;;
27383;SDS011;14851;51.166;4.760;2023-11-21T02:15:31;104.95;;;29.13;;
27383;SDS011;14851;51.166;4.760;2023-11-21T02:17:58;95.68;;;30.08;;
27383;SDS011;14851;51.166;4.760;2023-11-21T02:20:26;67.03;;;30.17;;
27383;SDS011;14851;51.166;4.760;2023-11-21T02:22:55;64.93;;;29.60;;
27383;SDS011;14851;51.166;4.760;2023-11-21T02:25:25;78.75;;;29.65;;
27383;SDS011;14851;51.166;4.760;2023-11-21T02:27:55;107.38;;;31.27;;
27383;SDS011;14851;51.166;4.760;2023-11-21T02:30:22;86.13;;;30.65;;
27383;SDS011;14851;51.166;4.760;2023-11-21T02:32:51;107.22;;;31.50;;
27383;SDS011;14851;51.166;4.760;2023-11-21T02:35:22;99.57;;;29.02;;
27383;SDS011;14851;51.166;4.760;2023-11-21T02:37:48;57.72;;;27.65;;
27383;SDS011;14851;51.166;4.760;2023-11-21T02:40:15;82.68;;;29.48;;
27383;SDS011;14851;51.166;4.760;2023-11-21T02:42:49;92.18;;;29.38;;
27383;SDS011;14851;51.166;4.760;2023-11-21T02:45:19;119.07;;;30.52;;
27383;SDS011;14851;51.166;4.760;2023-11-21T02:47:47;66.72;;;30.00;;
27383;SDS011;14851;51.166;4.760;2023-11-21T02:50:18;96.63;;;30.65;;
27383;SDS011;14851;51.166;4.760;2023-11-21T02:52:47;99.32;;;30.60;;
27383;SDS011;14851;51.166;4.760;2023-11-21T02:55:16;99.30;;;30.38;;
27383;SDS011;14851;51.166;4.760;2023-11-21T02:57:42;62.65;;;29.00;;
27383;SDS011;14851;51.166;4.760;2023-11-21T03:00:11;86.65;;;30.08;;
27383;SDS011;14851;51.166;4.760;2023-11-21T03:02:38;82.00;;;33.47;;
27383;SDS011;14851;51.166;4.760;2023-11-21T03:05:05;58.92;;;28.80;;
27383;SDS011;14851;51.166;4.760;2023-11-21T03:07:34;89.97;;;31.95;;
27383;SDS011;14851;51.166;4.760;2023-11-21T03:10:03;115.43;;;37.67;;
27383;SDS011;14851;51.166;4.760;2023-11-21T03:12:29;82.13;;;34.30;;
27383;SDS011;14851;51.166;4.760;2023-11-21T03:14:55;130.40;;;57.05;;
27383;SDS011;14851;51.166;4.760;2023-11-21T03:17:24;121.00;;;53.63;;
27383;SDS011;14851;51.166;4.760;2023-11-21T03:19:51;60.45;;;32.47;;
27383;SDS011;14851;51.166;4.760;2023-11-21T03:22:17;80.10;;;38.63;;
27383;SDS011;14851;51.166;4.760;2023-11-21T03:24:44;60.20;;;34.65;;
27383;SDS011;14851;51.166;4.760;2023-11-21T03:27:10;65.07;;;30.60;;
27383;SDS011;14851;51.166;4.760;2023-11-21T03:29:38;56.47;;;29.67;;
27383;SDS011;14851;51.166;4.760;2023-11-21T03:32:04;53.58;;;29.88;;
27383;SDS011;14851;51.166;4.760;2023-11-21T03:34:33;60.33;;;31.05;;
27383;SDS011;14851;51.166;4.760;2023-11-21T03:36:59;53.22;;;32.35;;
27383;SDS011;14851;51.166;4.760;2023-11-21T03:39:27;56.45;;;29.42;;
27383;SDS011;14851;51.166;4.760;2023-11-21T03:41:54;55.00;;;30.80;;
27383;SDS011;14851;51.166;4.760;2023-11-21T03:44:21;55.83;;;30.33;;
27383;SDS011;14851;51.166;4.760;2023-11-21T03:46:47;55.75;;;29.73;;
27383;SDS011;14851;51.166;4.760;2023-11-21T03:49:13;51.63;;;31.20;;
27383;SDS011;14851;51.166;4.760;2023-11-21T03:51:41;46.92;;;30.08;;
27383;SDS011;14851;51.166;4.760;2023-11-21T03:54:07;50.25;;;32.15;;
27383;SDS011;14851;51.166;4.760;2023-11-21T03:56:33;48.30;;;30.30;;
27383;SDS011;14851;51.166;4.760;2023-11-21T03:58:59;47.90;;;31.38;;
27383;SDS011;14851;51.166;4.760;2023-11-21T04:01:25;49.17;;;32.13;;
27383;SDS011;14851;51.166;4.760;2023-11-21T04:03:51;51.95;;;32.20;;
27383;SDS011;14851;51.166;4.760;2023-11-21T04:06:19;51.72;;;33.25;;
27383;SDS011;14851;51.166;4.760;2023-11-21T04:08:45;47.92;;;32.05;;
27383;SDS011;14851;51.166;4.760;2023-11-21T04:11:11;50.67;;;33.17;;
27383;SDS011;14851;51.166;4.760;2023-11-21T04:13:38;48.13;;;30.45;;
27383;SDS011;14851;51.166;4.760;2023-11-21T04:16:05;43.80;;;29.10;;
27383;SDS011;14851;51.166;4.760;2023-11-21T04:18:31;45.28;;;29.70;;
27383;SDS011;14851;51.166;4.760;2023-11-21T04:20:57;50.75;;;31.35;;
27383;SDS011;14851;51.166;4.760;2023-11-21T04:23:26;47.22;;;31.13;;
27383;SDS011;14851;51.166;4.760;2023-11-21T04:25:55;42.33;;;29.53;;
27383;SDS011;14851;51.166;4.760;2023-11-21T04:28:26;43.92;;;29.38;;
27383;SDS011;14851;51.166;4.760;2023-11-21T04:30:53;48.05;;;30.15;;
27383;SDS011;14851;51.166;4.760;2023-11-21T04:33:19;44.45;;;30.02;;
27383;SDS011;14851;51.166;4.760;2023-11-21T04:35:46;40.85;;;30.00;;
27383;SDS011;14851;51.166;4.760;2023-11-21T04:38:15;43.60;;;29.02;;
27383;SDS011;14851;51.166;4.760;2023-11-21T04:40:44;45.72;;;29.95;;
27383;SDS011;14851;51.166;4.760;2023-11-21T04:43:13;43.85;;;30.38;;
27383;SDS011;14851;51.166;4.760;2023-11-21T04:45:39;43.88;;;30.15;;
27383;SDS011;14851;51.166;4.760;2023-11-21T04:48:06;42.90;;;29.05;;
27383;SDS011;14851;51.166;4.760;2023-11-21T04:50:33;50.85;;;31.08;;
27383;SDS011;14851;51.166;4.760;2023-11-21T04:53:02;55.88;;;32.88;;
27383;SDS011;14851;51.166;4.760;2023-11-21T04:55:28;44.78;;;30.77;;
27383;SDS011;14851;51.166;4.760;2023-11-21T04:57:54;43.63;;;29.05;;
27383;SDS011;14851;51.166;4.760;2023-11-21T05:00:20;40.55;;;28.67;;
27383;SDS011;14851;51.166;4.760;2023-11-21T05:02:48;42.83;;;29.45;;
27383;SDS011;14851;51.166;4.760;2023-11-21T05:05:15;41.72;;;29.40;;
27383;SDS011;14851;51.166;4.760;2023-11-21T05:07:44;43.20;;;28.65;;
27383;SDS011;14851;51.166;4.760;2023-11-21T05:10:10;43.10;;;28.05;;
27383;SDS011;14851;51.166;4.760;2023-11-21T05:12:37;46.38;;;30.17;;
27383;SDS011;14851;51.166;4.760;2023-11-21T05:15:04;46.25;;;30.70;;
27383;SDS011;14851;51.166;4.760;2023-11-21T05:17:37;44.88;;;30.83;;
27383;SDS011;14851;51.166;4.760;2023-11-21T05:20:07;45.38;;;29.90;;
27383;SDS011;14851;51.166;4.760;2023-11-21T05:22:35;41.03;;;28.50;;
27383;SDS011;14851;51.166;4.760;2023-11-21T05:25:01;46.20;;;31.77;;
27383;SDS011;14851;51.166;4.760;2023-11-21T05:27:33;46.65;;;29.92;;
27383;SDS011;14851;51.166;4.760;2023-11-21T05:30:01;50.65;;;29.55;;
27383;SDS011;14851;51.166;4.760;2023-11-21T05:32:30;44.08;;;29.27;;
27383;SDS011;14851;51.166;4.760;2023-11-21T05:34:56;45.90;;;30.52;;
27383;SDS011;14851;51.166;4.760;2023-11-21T05:37:22;46.50;;;30.65;;
27383;SDS011;14851;51.166;4.760;2023-11-21T05:39:52;43.33;;;29.77;;
27383;SDS011;14851;51.166;4.760;2023-11-21T05:42:19;40.20;;;28.60;;
27383;SDS011;14851;51.166;4.760;2023-11-21T05:44:46;36.55;;;26.90;;
27383;SDS011;14851;51.166;4.760;2023-11-21T05:47:12;41.35;;;27.48;;
27383;SDS011;14851;51.166;4.760;2023-11-21T05:49:38;45.35;;;29.05;;
27383;SDS011;14851;51.166;4.760;2023-11-21T05:52:04;48.05;;;29.58;;
27383;SDS011;14851;51.166;4.760;2023-11-21T05:54:31;49.28;;;29.73;;
27383;SDS011;14851;51.166;4.760;2023-11-21T05:56:59;42.20;;;27.58;;
27383;SDS011;14851;51.166;4.760;2023-11-21T05:59:29;41.45;;;28.13;;
27383;SDS011;14851;51.166;4.760;2023-11-21T06:01:55;49.38;;;30.92;;
27383;SDS011;14851;51.166;4.760;2023-11-21T06:04:23;45.53;;;30.45;;
27383;SDS011;14851;51.166;4.760;2023-11-21T06:06:50;46.67;;;31.45;;
27383;SDS011;14851;51.166;4.760;2023-11-21T06:09:19;45.35;;;33.03;;
27383;SDS011;14851;51.166;4.760;2023-11-21T06:11:46;48.85;;;31.85;;
27383;SDS011;14851;51.166;4.760;2023-11-21T06:14:11;55.08;;;33.65;;
27383;SDS011;14851;51.166;4.760;2023-11-21T06:16:40;50.40;;;31.30;;
27383;SDS011;14851;51.166;4.760;2023-11-21T06:19:05;48.67;;;31.08;;
27383;SDS011;14851;51.166;4.760;2023-11-21T06:21:31;48.85;;;31.92;;
27383;SDS011;14851;51.166;4.760;2023-11-21T06:23:59;44.38;;;30.58;;
27383;SDS011;14851;51.166;4.760;2023-11-21T06:26:24;45.78;;;30.70;;
27383;SDS011;14851;51.166;4.760;2023-11-21T06:28:53;52.95;;;33.60;;
27383;SDS011;14851;51.166;4.760;2023-11-21T06:31:19;59.25;;;37.80;;
27383;SDS011;14851;51.166;4.760;2023-11-21T06:33:44;57.35;;;35.97;;
27383;SDS011;14851;51.166;4.760;2023-11-21T06:36:10;48.85;;;32.05;;
27383;SDS011;14851;51.166;4.760;2023-11-21T06:38:41;58.95;;;34.20;;
27383;SDS011;14851;51.166;4.760;2023-11-21T06:41:07;62.05;;;33.70;;
27383;SDS011;14851;51.166;4.760;2023-11-21T06:43:33;54.75;;;33.25;;
27383;SDS011;14851;51.166;4.760;2023-11-21T06:46:01;52.45;;;31.98;;
27383;SDS011;14851;51.166;4.760;2023-11-21T06:48:27;53.83;;;31.88;;
27383;SDS011;14851;51.166;4.760;2023-11-21T06:50:55;55.53;;;31.75;;
27383;SDS011;14851;51.166;4.760;2023-11-21T06:53:21;47.97;;;31.60;;
27383;SDS011;14851;51.166;4.760;2023-11-21T06:55:46;50.40;;;29.63;;
27383;SDS011;14851;51.166;4.760;2023-11-21T06:58:15;51.55;;;29.17;;
27383;SDS011;14851;51.166;4.760;2023-11-21T07:00:41;52.38;;;30.35;;
27383;SDS011;14851;51.166;4.760;2023-11-21T07:05:40;58.50;;;34.13;;
27383;SDS011;14851;51.166;4.760;2023-11-21T07:08:06;57.50;;;32.83;;
27383;SDS011;14851;51.166;4.760;2023-11-21T07:10:32;45.47;;;29.50;;
27383;SDS011;14851;51.166;4.760;2023-11-21T07:13:00;49.42;;;30.58;;
27383;SDS011;14851;51.166;4.760;2023-11-21T07:15:26;52.88;;;30.60;;
27383;SDS011;14851;51.166;4.760;2023-11-21T07:17:53;46.85;;;29.65;;
27383;SDS011;14851;51.166;4.760;2023-11-21T07:20:22;60.42;;;32.05;;
27383;SDS011;14851;51.166;4.760;2023-11-21T07:22:48;63.50;;;35.67;;
27383;SDS011;14851;51.166;4.760;2023-11-21T07:25:14;65.25;;;34.67;;
27383;SDS011;14851;51.166;4.760;2023-11-21T07:27:40;59.78;;;35.45;;
27383;SDS011;14851;51.166;4.760;2023-11-21T07:30:06;61.47;;;33.95;;
27383;SDS011;14851;51.166;4.760;2023-11-21T07:32:35;55.70;;;34.45;;
27383;SDS011;14851;51.166;4.760;2023-11-21T07:35:00;51.08;;;31.08;;
27383;SDS011;14851;51.166;4.760;2023-11-21T07:37:30;57.03;;;33.83;;
27383;SDS011;14851;51.166;4.760;2023-11-21T07:39:55;70.72;;;36.85;;
27383;SDS011;14851;51.166;4.760;2023-11-21T07:42:23;68.57;;;36.90;;
27383;SDS011;14851;51.166;4.760;2023-11-21T07:44:52;65.63;;;34.38;;
27383;SDS011;14851;51.166;4.760;2023-11-21T07:47:18;56.83;;;33.53;;
27383;SDS011;14851;51.166;4.760;2023-11-21T07:49:43;59.10;;;33.42;;
27383;SDS011;14851;51.166;4.760;2023-11-21T07:52:12;63.92;;;37.72;;
27383;SDS011;14851;51.166;4.760;2023-11-21T07:54:39;63.08;;;36.67;;
27383;SDS011;14851;51.166;4.760;2023-11-21T07:57:09;65.32;;;38.22;;
27383;SDS011;14851;51.166;4.760;2023-11-21T07:59:38;60.40;;;37.35;;
27383;SDS011;14851;51.166;4.760;2023-11-21T08:02:06;61.13;;;36.15;;
27383;SDS011;14851;51.166;4.760;2023-11-21T08:04:32;65.35;;;37.40;;
27383;SDS011;14851;51.166;4.760;2023-11-21T08:06:59;64.55;;;35.85;;
27383;SDS011;14851;51.166;4.760;2023-11-21T08:09:27;61.92;;;37.00;;
27383;SDS011;14851;51.166;4.760;2023-11-21T08:11:53;65.93;;;35.72;;
27383;SDS011;14851;51.166;4.760;2023-11-21T08:14:19;64.85;;;37.08;;
27383;SDS011;14851;51.166;4.760;2023-11-21T08:16:45;65.65;;;37.15;;
27383;SDS011;14851;51.166;4.760;2023-11-21T08:19:11;65.00;;;35.88;;
27383;SDS011;14851;51.166;4.760;2023-11-21T08:21:37;65.32;;;36.20;;
27383;SDS011;14851;51.166;4.760;2023-11-21T08:24:08;63.50;;;36.47;;
27383;SDS011;14851;51.166;4.760;2023-11-21T08:26:36;63.65;;;35.92;;
27383;SDS011;14851;51.166;4.760;2023-11-21T08:29:03;66.95;;;35.55;;
27383;SDS011;14851;51.166;4.760;2023-11-21T08:31:31;68.60;;;38.50;;
27383;SDS011;14851;51.166;4.760;2023-11-21T08:33:57;75.63;;;43.25;;
27383;SDS011;14851;51.166;4.760;2023-11-21T08:36:22;79.15;;;41.63;;
27383;SDS011;14851;51.166;4.760;2023-11-21T08:38:49;69.13;;;43.50;;
27383;SDS011;14851;51.166;4.760;2023-11-21T08:41:17;74.82;;;42.58;;
27383;SDS011;14851;51.166;4.760;2023-11-21T08:43:50;63.80;;;37.43;;
27383;SDS011;14851;51.166;4.760;2023-11-21T08:46:18;70.75;;;40.97;;
27383;SDS011;14851;51.166;4.760;2023-11-21T08:48:44;71.90;;;40.00;;
27383;SDS011;14851;51.166;4.760;2023-11-21T08:51:11;71.65;;;35.47;;
27383;SDS011;14851;51.166;4.760;2023-11-21T08:53:39;83.13;;;42.08;;
27383;SDS011;14851;51.166;4.760;2023-11-21T08:56:05;92.25;;;41.30;;
27383;SDS011;14851;51.166;4.760;2023-11-21T08:58:32;84.68;;;40.88;;
27383;SDS011;14851;51.166;4.760;2023-11-21T09:00:58;86.10;;;41.42;;
27383;SDS011;14851;51.166;4.760;2023-11-21T09:03:24;82.45;;;42.22;;
27383;SDS011;14851;51.166;4.760;2023-11-21T09:05:57;87.68;;;43.47;;
27383;SDS011;14851;51.166;4.760;2023-11-21T09:08:25;78.07;;;36.97;;
27383;SDS011;14851;51.166;4.760;2023-11-21T09:10:53;92.63;;;40.15;;
27383;SDS011;14851;51.166;4.760;2023-11-21T09:13:20;95.45;;;38.53;;
27383;SDS011;14851;51.166;4.760;2023-11-21T09:15:46;86.47;;;38.45;;
27383;SDS011;14851;51.166;4.760;2023-11-21T09:18:14;80.88;;;40.85;;
27383;SDS011;14851;51.166;4.760;2023-11-21T09:20:44;91.55;;;42.38;;
27383;SDS011;14851;51.166;4.760;2023-11-21T09:23:12;100.22;;;42.50;;
27383;SDS011;14851;51.166;4.760;2023-11-21T09:25:38;85.07;;;39.25;;
27383;SDS011;14851;51.166;4.760;2023-11-21T09:28:04;94.07;;;43.63;;
27383;SDS011;14851;51.166;4.760;2023-11-21T09:30:36;91.30;;;42.70;;
27383;SDS011;14851;51.166;4.760;2023-11-21T09:33:03;83.53;;;42.17;;
27383;SDS011;14851;51.166;4.760;2023-11-21T09:35:37;88.32;;;41.38;;
27383;SDS011;14851;51.166;4.760;2023-11-21T09:38:04;89.75;;;41.90;;
27383;SDS011;14851;51.166;4.760;2023-11-21T09:40:39;86.88;;;40.95;;
27383;SDS011;14851;51.166;4.760;2023-11-21T09:43:09;71.05;;;36.53;;
27383;SDS011;14851;51.166;4.760;2023-11-21T09:45:51;61.65;;;34.63;;
27383;SDS011;14851;51.166;4.760;2023-11-21T09:48:22;68.30;;;34.87;;
27383;SDS011;14851;51.166;4.760;2023-11-21T09:50:51;61.28;;;32.10;;
27383;SDS011;14851;51.166;4.760;2023-11-21T09:53:19;57.58;;;30.38;;
27383;SDS011;14851;51.166;4.760;2023-11-21T09:55:47;54.30;;;30.00;;
27383;SDS011;14851;51.166;4.760;2023-11-21T09:58:16;51.60;;;26.40;;
27383;SDS011;14851;51.166;4.760;2023-11-21T10:00:43;51.42;;;26.70;;
27383;SDS011;14851;51.166;4.760;2023-11-21T10:03:14;42.67;;;22.50;;
27383;SDS011;14851;51.166;4.760;2023-11-21T10:05:41;38.28;;;23.42;;
27383;SDS011;14851;51.166;4.760;2023-11-21T10:08:10;43.30;;;23.95;;
27383;SDS011;14851;51.166;4.760;2023-11-21T10:10:37;36.80;;;20.73;;
27383;SDS011;14851;51.166;4.760;2023-11-21T10:13:09;42.45;;;23.60;;
27383;SDS011;14851;51.166;4.760;2023-11-21T10:15:42;38.35;;;22.88;;
27383;SDS011;14851;51.166;4.760;2023-11-21T10:18:14;39.85;;;23.13;;
27383;SDS011;14851;51.166;4.760;2023-11-21T10:20:41;42.35;;;23.27;;
27383;SDS011;14851;51.166;4.760;2023-11-21T10:23:08;40.65;;;23.80;;
27383;SDS011;14851;51.166;4.760;2023-11-21T10:25:36;43.65;;;24.02;;
27383;SDS011;14851;51.166;4.760;2023-11-21T10:28:05;49.78;;;25.15;;
27383;SDS011;14851;51.166;4.760;2023-11-21T10:30:35;41.30;;;23.70;;
27383;SDS011;14851;51.166;4.760;2023-11-21T10:38:07;41.97;;;22.40;;
27383;SDS011;14851;51.166;4.760;2023-11-21T10:40:40;41.53;;;22.73;;
27383;SDS011;14851;51.166;4.760;2023-11-21T10:43:07;36.45;;;21.38;;
27383;SDS011;14851;51.166;4.760;2023-11-21T10:45:40;41.08;;;24.00;;
27383;SDS011;14851;51.166;4.760;2023-11-21T10:48:08;38.58;;;22.00;;
27383;SDS011;14851;51.166;4.760;2023-11-21T10:50:36;31.00;;;19.98;;
27383;SDS011;14851;51.166;4.760;2023-11-21T10:53:03;34.47;;;21.02;;
27383;SDS011;14851;51.166;4.760;2023-11-21T10:55:30;30.17;;;20.20;;
27383;SDS011;14851;51.166;4.760;2023-11-21T10:58:03;31.77;;;20.98;;
27383;SDS011;14851;51.166;4.760;2023-11-21T11:02:57;27.23;;;17.67;;
27383;SDS011;14851;51.166;4.760;2023-11-21T11:05:24;32.38;;;18.90;;
27383;SDS011;14851;51.166;4.760;2023-11-21T11:07:58;29.80;;;17.70;;
27383;SDS011;14851;51.166;4.760;2023-11-21T11:10:31;33.40;;;18.90;;
27383;SDS011;14851;51.166;4.760;2023-11-21T11:12:57;26.45;;;18.77;;
27383;SDS011;14851;51.166;4.760;2023-11-21T11:15:24;27.35;;;17.58;;
27383;SDS011;14851;51.166;4.760;2023-11-21T11:17:52;26.95;;;18.92;;
27383;SDS011;14851;51.166;4.760;2023-11-21T11:20:33;25.73;;;18.27;;
27383;SDS011;14851;51.166;4.760;2023-11-21T11:32:30;20.83;;;13.32;;
27383;SDS011;14851;51.166;4.760;2023-11-21T11:35:26;18.17;;;12.10;;
27383;SDS011;14851;51.166;4.760;2023-11-21T11:38:03;19.38;;;12.73;;
27383;SDS011;14851;51.166;4.760;2023-11-21T11:40:44;17.15;;;12.05;;
27383;SDS011;14851;51.166;4.760;2023-11-21T11:43:11;20.17;;;12.48;;
27383;SDS011;14851;51.166;4.760;2023-11-21T11:45:37;21.48;;;14.00;;
27383;SDS011;14851;51.166;4.760;2023-11-21T11:48:07;20.55;;;13.38;;
27383;SDS011;14851;51.166;4.760;2023-11-21T11:51:04;20.25;;;13.57;;
27383;SDS011;14851;51.166;4.760;2023-11-21T11:53:35;21.20;;;14.25;;
27383;SDS011;14851;51.166;4.760;2023-11-21T11:59:00;18.92;;;12.23;;
27383;SDS011;14851;51.166;4.760;2023-11-21T12:01:30;16.15;;;11.57;;
27383;SDS011;14851;51.166;4.760;2023-11-21T12:06:42;21.33;;;14.07;;
27383;SDS011;14851;51.166;4.760;2023-11-21T12:09:27;20.48;;;14.93;;
27383;SDS011;14851;51.166;4.760;2023-11-21T12:11:55;18.17;;;12.43;;
27383;SDS011;14851;51.166;4.760;2023-11-21T12:14:26;22.77;;;15.63;;
27383;SDS011;14851;51.166;4.760;2023-11-21T12:16:53;17.98;;;13.38;;
27383;SDS011;14851;51.166;4.760;2023-11-21T12:19:19;16.05;;;13.40;;
27383;SDS011;14851;51.166;4.760;2023-11-21T12:21:46;40.08;;;32.63;;
27383;SDS011;14851;51.166;4.760;2023-11-21T12:24:14;12.88;;;9.07;;
27383;SDS011;14851;51.166;4.760;2023-11-21T12:26:44;20.77;;;17.30;;
27383;SDS011;14851;51.166;4.760;2023-11-21T12:29:10;16.48;;;11.38;;
27383;SDS011;14851;51.166;4.760;2023-11-21T12:31:36;13.18;;;9.20;;
27383;SDS011;14851;51.166;4.760;2023-11-21T12:34:02;38.95;;;32.90;;
27383;SDS011;14851;51.166;4.760;2023-11-21T12:36:31;31.98;;;25.30;;
27383;SDS011;14851;51.166;4.760;2023-11-21T12:38:59;12.63;;;9.48;;
27383;SDS011;14851;51.166;4.760;2023-11-21T12:41:25;13.57;;;9.10;;
27383;SDS011;14851;51.166;4.760;2023-11-21T12:43:51;13.55;;;11.90;;
27383;SDS011;14851;51.166;4.760;2023-11-21T12:46:17;8.55;;;6.22;;
27383;SDS011;14851;51.166;4.760;2023-11-21T12:48:46;9.27;;;5.40;;
27383;SDS011;14851;51.166;4.760;2023-11-21T12:51:12;7.10;;;5.93;;
27383;SDS011;14851;51.166;4.760;2023-11-21T12:53:44;8.23;;;5.55;;
27383;SDS011;14851;51.166;4.760;2023-11-21T12:56:10;7.22;;;5.57;;
27383;SDS011;14851;51.166;4.760;2023-11-21T12:58:40;7.95;;;5.82;;
27383;SDS011;14851;51.166;4.760;2023-11-21T13:01:16;10.32;;;6.82;;
27383;SDS011;14851;51.166;4.760;2023-11-21T13:03:46;9.75;;;7.40;;
27383;SDS011;14851;51.166;4.760;2023-11-21T13:06:14;8.73;;;6.20;;
27383;SDS011;14851;51.166;4.760;2023-11-21T13:08:41;9.50;;;6.95;;
27383;SDS011;14851;51.166;4.760;2023-11-21T13:11:10;10.25;;;8.02;;
27383;SDS011;14851;51.166;4.760;2023-11-21T13:13:40;13.37;;;9.03;;
27383;SDS011;14851;51.166;4.760;2023-11-21T13:16:07;10.63;;;8.32;;
27383;SDS011;14851;51.166;4.760;2023-11-21T13:18:35;10.73;;;9.00;;
27383;SDS011;14851;51.166;4.760;2023-11-21T13:21:03;12.60;;;9.80;;
27383;SDS011;14851;51.166;4.760;2023-11-21T13:23:40;11.68;;;9.32;;
27383;SDS011;14851;51.166;4.760;2023-11-21T13:26:07;10.93;;;9.18;;
27383;SDS011;14851;51.166;4.760;2023-11-21T13:28:34;12.88;;;8.82;;
27383;SDS011;14851;51.166;4.760;2023-11-21T13:31:03;10.38;;;8.13;;
27383;SDS011;14851;51.166;4.760;2023-11-21T13:33:46;8.30;;;7.25;;
27383;SDS011;14851;51.166;4.760;2023-11-21T13:36:24;10.80;;;7.80;;
27383;SDS011;14851;51.166;4.760;2023-11-21T13:38:51;10.13;;;7.53;;
27383;SDS011;14851;51.166;4.760;2023-11-21T13:41:21;9.27;;;7.90;;
27383;SDS011;14851;51.166;4.760;2023-11-21T13:43:55;8.38;;;6.95;;
27383;SDS011;14851;51.166;4.760;2023-11-21T13:46:40;11.27;;;7.10;;
27383;SDS011;14851;51.166;4.760;2023-11-21T13:49:10;8.40;;;6.28;;
27383;SDS011;14851;51.166;4.760;2023-11-21T13:51:36;10.05;;;7.90;;
27383;SDS011;14851;51.166;4.760;2023-11-21T13:54:08;9.70;;;7.80;;
27383;SDS011;14851;51.166;4.760;2023-11-21T13:56:37;10.77;;;7.78;;
27383;SDS011;14851;51.166;4.760;2023-11-21T13:59:06;12.32;;;7.40;;
27383;SDS011;14851;51.166;4.760;2023-11-21T14:01:46;9.90;;;7.30;;
27383;SDS011;14851;51.166;4.760;2023-11-21T14:04:21;10.68;;;8.18;;
27383;SDS011;14851;51.166;4.760;2023-11-21T14:06:56;9.70;;;7.78;;
27383;SDS011;14851;51.166;4.760;2023-11-21T14:09:25;13.15;;;7.93;;
27383;SDS011;14851;51.166;4.760;2023-11-21T14:11:58;12.60;;;8.57;;
27383;SDS011;14851;51.166;4.760;2023-11-21T14:14:26;14.00;;;9.88;;
27383;SDS011;14851;51.166;4.760;2023-11-21T14:16:58;10.45;;;8.70;;
27383;SDS011;14851;51.166;4.760;2023-11-21T14:19:27;14.00;;;11.38;;
27383;SDS011;14851;51.166;4.760;2023-11-21T14:21:57;12.20;;;9.70;;
27383;SDS011;14851;51.166;4.760;2023-11-21T14:24:24;11.18;;;9.98;;
27383;SDS011;14851;51.166;4.760;2023-11-21T14:26:50;10.77;;;9.48;;
27383;SDS011;14851;51.166;4.760;2023-11-21T14:29:19;11.32;;;10.13;;
27383;SDS011;14851;51.166;4.760;2023-11-21T14:31:45;13.43;;;10.60;;
27383;SDS011;14851;51.166;4.760;2023-11-21T14:34:13;12.07;;;9.77;;
27383;SDS011;14851;51.166;4.760;2023-11-21T14:36:40;12.13;;;10.13;;
27383;SDS011;14851;51.166;4.760;2023-11-21T14:39:09;13.77;;;10.88;;
27383;SDS011;14851;51.166;4.760;2023-11-21T14:41:48;12.95;;;11.52;;
27383;SDS011;14851;51.166;4.760;2023-11-21T14:44:19;17.33;;;12.98;;
27383;SDS011;14851;51.166;4.760;2023-11-21T14:46:50;17.92;;;15.98;;
27383;SDS011;14851;51.166;4.760;2023-11-21T14:49:17;14.65;;;13.05;;
27383;SDS011;14851;51.166;4.760;2023-11-21T14:51:46;16.48;;;13.05;;
27383;SDS011;14851;51.166;4.760;2023-11-21T14:54:33;17.25;;;13.07;;